Welcome to our Virtual Airline
Sign-in:

Flight MFC6101

  • Submitted By: James Smith
  • Departure Airport: Hydaburg SPB (HYG)
  • Arrival Airport: Point Baker SPB (KPB)
  • Aircraft: C185F (N185TMM)
  • Flight Time: 00.52.53
  • Date Submitted: 2018/03/23
  • Route: FOLLOW THE TOUR FP
  • Status: Accepted
Flight Details
Gross Revenue:
(3 load / $ 52.00 per unit
$ 156.00
Fuel Cost:
(33.1122 fuel used @ 5.1 / unit)
$ 168.87

Additional Log Information:

View Log

[16:50] ----- Flight Opened -----
[16:50] Cigar Box - 1.1.2.0
[16:50] FS: Prepar3D V4
[16:50] FSUIPC: v5.122
[16:50] Flight Number: MFC6101
[16:50] FS Aircraft: C185F SKYWAGON Misty Taxi
[16:50] FS Model: C185
[16:50] FS Type: Cessna
[16:50] Departure: HYG
[16:50] Arrival: KPB
[16:50] Flight Level: 2500
[16:50] Flight Type: H
[16:50] Passengers: 3
[16:50] FOB: 192 lbs
[16:50] Gate: n/a
[16:50] NOTE: Parking Brake Ignored
[16:50] Crash Detection: Disabled
[16:50] Crash Detection Aircraft: Disabled
[16:50] Engines: 1 Piston
[16:50] NOTE: Boarding has started
[16:50] Landing Gear: Retracted
[16:50] Light Data: Navigation ON
[16:50] Light Data: Beacon ON
[16:50] Light Data: Landing lights ON
[16:50] Light Data: Recognition lights ON
[16:50] Light Data: Wing lights ON
[16:50] Main Door Closed
[16:50] COM1: 122.90
[16:50] COM2: 135.80
[16:50] Transponder: 1200
[16:50] NAV1: 109.30
[16:50] NAV2: 115.90
[16:50] ADF1: 396.0
[16:50] ADF2: 240.0
[16:50] Navigation Mode: GPS
[16:50] Navigation Mode: GPS
[16:51] Engine 1: Started
[16:51] Flaps: Position 1
[16:51] NOTE: Taxi started
[16:51] Flaps: Position 2
[16:51] NOTE: ----- TAKE OFF -----
[16:51] GS: 68 knots
[16:51] TAS: 68 knots
[16:51] IAS: 68 knots
[16:51] VS: 6 fpm
[16:51] FOB: 191 lbs
[16:51] Heading: 219°
[16:51] Pitch: 0°
[16:51] Bank: 0°
[16:51] Aircraft Weight: 2346.88 lbs
[16:51] Nearest Airport: PAHY
[16:51] Distance: 0.20 miles
[16:51] Runway: ???
[16:51] Ground Surface: Water
[16:51] Ground Condition: Normal
[16:51] NOTE: Weather Report
[16:51] Wind Heading: 359°
[16:51] Wind Speed: 0 knots
[16:51] OAT: 12° C
[16:51] TAT: 13° C
[16:51] Precipitation: None
[16:51] Dew Point: 4° C
[16:51] Visibility: 39 miles
[16:51] METAR: No METAR available for HYG.
[16:52] NOTE: Climb started
[16:52] Flaps: Position 1
[16:52] GS: 81 knots
[16:52] TAS: 82 knots
[16:52] IAS: 83 knots
[16:52] VS: 1333 fpm
[16:52] Flaps: Position 0
[16:52] GS: 83 knots
[16:52] TAS: 84 knots
[16:52] IAS: 84 knots
[16:52] VS: 1151 fpm
[16:52] View Mode: Virtual Cockpit
[16:52] COM1: 118.50
[16:58] NOTE: TOC reached
[16:58] NOTE: Cruise started
[16:58] GS: 110 knots
[16:58] TAS: 113 knots
[16:58] IAS: 110 knots
[16:58] VS: 196 fpm
[16:58] FOB: 180 lbs
[16:58] Heading: 23°
[16:58] Pitch: 1°
[16:58] Bank: 13°
[16:58] Aircraft Weight: 2335.59 lbs
[17:00] Turbulence: Light
[17:07] Recovery: Flight Saved
[17:14] COM1: 122.90
[17:16] Flaps: Position 1
[17:16] GS: 99 knots
[17:16] TAS: 106 knots
[17:16] IAS: 104 knots
[17:16] VS: -566 fpm
[17:17] Turbulence: None
[17:17] NOTE: TOD reached
[17:17] NOTE: Descent started
[17:17] GS: 79 knots
[17:17] TAS: 84 knots
[17:17] IAS: 83 knots
[17:17] VS: -554 fpm
[17:17] FOB: 151 lbs
[17:17] Heading: 307°
[17:17] Pitch: 3°
[17:17] Bank: -1°
[17:17] Aircraft Weight: 2306.37 lbs
[17:17] NOTE: On approach
[17:17] Flaps: Position 2
[17:17] GS: 79 knots
[17:17] TAS: 84 knots
[17:17] IAS: 83 knots
[17:17] VS: -555 fpm
[17:17] Flaps: Position 3
[17:17] GS: 68 knots
[17:17] TAS: 73 knots
[17:17] IAS: 72 knots
[17:17] VS: -723 fpm
[17:19] Flaps: Position 4
[17:19] GS: 66 knots
[17:19] TAS: 69 knots
[17:19] IAS: 69 knots
[17:19] VS: -1072 fpm
[17:20] NOTE: ----- LANDED -----
[17:20] Landing Rate: -294.51 fpm
[17:20] GS: 48 knots
[17:20] TAS: 51 knots
[17:20] IAS: 51 knots
[17:20] VS: -286 fpm
[17:20] FOB: 151 lbs
[17:20] Heading: 327°
[17:20] Pitch: 0°
[17:20] Bank: 0°
[17:20] Aircraft Weight: 2306.64 lbs
[17:20] Nearest Airport: 16K
[17:20] Distance: 1.18 miles
[17:20] Runway: ???
[17:20] Ground Surface: Water
[17:20] Ground Condition: Normal
[17:20] NOTE: Weather Report
[17:20] Wind Heading: 2°
[17:20] Wind Speed: 1 knots
[17:20] OAT: 6° C
[17:20] TAT: 7° C
[17:20] Precipitation: None
[17:20] Dew Point: 2° C
[17:20] Visibility: 39 miles
[17:20] METAR: KPBF 232053Z AUTO 20014KT 10SM SCT041 BKN060 24/09 A3002 RMK AO2 PK WND 18030/2036 SLP164 T02390094 58039KPBG 232053Z AUTO 36011KT 10SM CLR 05/M08 A3001 RMK AO2 SLP166 T00501078 53006KPBH 232055Z AUTO 10009G15KT 10SM CLR 03/M13 A3030 RMK AO2 T00311127KPBI 232053Z 06011KT 10SM CLR 21/08 A3019 RMK AO2 SLP223 T02110078 56014KPBX 232055Z AUTO 29011G18KT 10SM CLR 10/M06 A3019 RMK AO2 T01001063
[17:20] View Mode: Virtual Cockpit
[17:20] NOTE: Taxi started
[17:21] Engine 1: Stopped
[17:21] Flaps: Position 3
[17:21] Flaps: Position 2
[17:21] Engine 1: Started
[17:22] Flaps: Position 1
[17:22] GS: 97 knots
[17:22] TAS: 99 knots
[17:22] IAS: 100 knots
[17:22] VS: 223 fpm
[17:22] Flaps: Position 0
[17:22] GS: 101 knots
[17:22] TAS: 102 knots
[17:22] IAS: 104 knots
[17:22] VS: -85 fpm
[17:22] View Mode: Virtual Cockpit
[17:27] Turbulence: Light
[17:28] Recovery: Flight Saved
[17:28] Turbulence: None
[17:40] Turbulence: Light
[17:40] Flaps: Position 1
[17:40] GS: 104 knots
[17:40] TAS: 102 knots
[17:40] IAS: 102 knots
[17:40] VS: 140 fpm
[17:40] Flaps: Position 2
[17:40] GS: 97 knots
[17:40] TAS: 95 knots
[17:40] IAS: 95 knots
[17:40] VS: 434 fpm
[17:42] Flaps: Position 3
[17:42] GS: 77 knots
[17:42] TAS: 83 knots
[17:42] IAS: 83 knots
[17:42] VS: -941 fpm
[17:42] Flaps: Position 4
[17:42] GS: 73 knots
[17:42] TAS: 78 knots
[17:42] IAS: 79 knots
[17:42] VS: -583 fpm
[17:42] Turbulence: None
[17:43] NOTE: ----- LANDED -----
[17:43] Landing Rate: -100.73 fpm
[17:43] GS: 42 knots
[17:43] TAS: 45 knots
[17:43] IAS: 46 knots
[17:43] VS: -100 fpm
[17:43] FOB: 119 lbs
[17:43] Heading: 344°
[17:43] Pitch: 4°
[17:43] Bank: 2°
[17:43] Aircraft Weight: 2274.84 lbs
[17:43] Nearest Airport: KPB
[17:43] Distance: 0.54 miles
[17:43] Runway: ???
[17:43] Ground Surface: Water
[17:43] Ground Condition: Snow
[17:43] NOTE: Weather Report
[17:43] Wind Heading: 20°
[17:43] Wind Speed: 3 knots
[17:43] OAT: 2° C
[17:43] TAT: 3° C
[17:43] Precipitation: Very Light Snow
[17:43] Dew Point: -1° C
[17:43] Visibility: 39 miles
[17:43] METAR: KPBF 232053Z AUTO 20014KT 10SM SCT041 BKN060 24/09 A3002 RMK AO2 PK WND 18030/2036 SLP164 T02390094 58039KPBG 232053Z AUTO 36011KT 10SM CLR 05/M08 A3001 RMK AO2 SLP166 T00501078 53006KPBH 232055Z AUTO 10009G15KT 10SM CLR 03/M13 A3030 RMK AO2 T00311127KPBI 232053Z 06011KT 10SM CLR 21/08 A3019 RMK AO2 SLP223 T02110078 56014KPBX 232055Z AUTO 29011G18KT 10SM CLR 10/M06 A3019 RMK AO2 T01001063
[17:43] View Mode: Virtual Cockpit
[17:43] Flaps: Position 2
[17:43] Flaps: Position 0
[17:44] Engine 1: Stopped
[17:45] Gate: n/a
[17:45] NOTE: Flight Completed
[17:45] FS Aircraft: C185F SKYWAGON Misty Taxi
[17:45] FS Model: C185
[17:45] FS Type: Cessna
[17:45] FOB: 119 lbs
[17:45] Fuel Used: 73 lbs
[17:45] Flight Time: 00:52:53
[17:45] Flight Time (Dawn): 00:00:00
[17:45] Flight Time (Day): 00:52:53
[17:45] Flight Time (Dusk): 00:00:00
[17:45] Flight Time (Night): 00:00:00
[17:45] Total Landings: 2
[17:45] MaxSim Rate: 0x
[17:45] Cigar Box - 1.1.2.0
[17:45] ----- Flight Closed -----

Route Map